sensor_id;sensor_type;location;lat;lon;timestamp;P1;durP1;ratioP1;P2;durP2;ratioP2
71665;SDS011;59503;53.486;10.196;2023-09-30T00:01:00;17.52;;;2.53;;
71665;SDS011;59503;53.486;10.196;2023-09-30T00:03:26;10.80;;;2.90;;
71665;SDS011;59503;53.486;10.196;2023-09-30T00:05:52;15.60;;;3.23;;
71665;SDS011;59503;53.486;10.196;2023-09-30T00:08:18;12.00;;;2.70;;
71665;SDS011;59503;53.486;10.196;2023-09-30T00:10:43;14.23;;;3.07;;
71665;SDS011;59503;53.486;10.196;2023-09-30T00:13:08;26.73;;;2.90;;
71665;SDS011;59503;53.486;10.196;2023-09-30T00:15:34;10.33;;;3.33;;
71665;SDS011;59503;53.486;10.196;2023-09-30T00:18:00;10.03;;;1.90;;
71665;SDS011;59503;53.486;10.196;2023-09-30T00:20:26;20.23;;;3.85;;
71665;SDS011;59503;53.486;10.196;2023-09-30T00:22:52;9.98;;;2.88;;
71665;SDS011;59503;53.486;10.196;2023-09-30T00:25:18;19.97;;;2.90;;
71665;SDS011;59503;53.486;10.196;2023-09-30T00:27:43;12.63;;;3.07;;
71665;SDS011;59503;53.486;10.196;2023-09-30T00:30:09;10.53;;;2.87;;
71665;SDS011;59503;53.486;10.196;2023-09-30T00:32:34;13.05;;;2.78;;
71665;SDS011;59503;53.486;10.196;2023-09-30T00:35:03;15.87;;;2.90;;
71665;SDS011;59503;53.486;10.196;2023-09-30T00:37:28;15.80;;;3.20;;
71665;SDS011;59503;53.486;10.196;2023-09-30T00:39:54;23.30;;;3.50;;
71665;SDS011;59503;53.486;10.196;2023-09-30T00:42:20;25.60;;;3.20;;
71665;SDS011;59503;53.486;10.196;2023-09-30T00:44:46;24.20;;;2.83;;
71665;SDS011;59503;53.486;10.196;2023-09-30T00:47:12;15.30;;;3.43;;
71665;SDS011;59503;53.486;10.196;2023-09-30T00:49:40;12.35;;;2.78;;
71665;SDS011;59503;53.486;10.196;2023-09-30T00:52:08;18.40;;;2.78;;
71665;SDS011;59503;53.486;10.196;2023-09-30T00:54:35;15.70;;;3.20;;
71665;SDS011;59503;53.486;10.196;2023-09-30T00:57:02;17.80;;;2.30;;
71665;SDS011;59503;53.486;10.196;2023-09-30T00:59:28;17.92;;;3.10;;
71665;SDS011;59503;53.486;10.196;2023-09-30T01:01:57;13.60;;;2.45;;
71665;SDS011;59503;53.486;10.196;2023-09-30T01:04:24;11.70;;;2.70;;
71665;SDS011;59503;53.486;10.196;2023-09-30T01:06:52;15.80;;;2.97;;
71665;SDS011;59503;53.486;10.196;2023-09-30T01:09:17;16.53;;;3.00;;
71665;SDS011;59503;53.486;10.196;2023-09-30T01:11:44;17.10;;;3.20;;
71665;SDS011;59503;53.486;10.196;2023-09-30T01:14:26;21.77;;;4.10;;
71665;SDS011;59503;53.486;10.196;2023-09-30T01:16:52;13.57;;;3.03;;
71665;SDS011;59503;53.486;10.196;2023-09-30T01:19:18;15.93;;;2.90;;
71665;SDS011;59503;53.486;10.196;2023-09-30T01:21:44;24.00;;;3.47;;
71665;SDS011;59503;53.486;10.196;2023-09-30T01:24:16;11.02;;;2.03;;
71665;SDS011;59503;53.486;10.196;2023-09-30T01:26:41;19.30;;;2.70;;
71665;SDS011;59503;53.486;10.196;2023-09-30T01:29:09;11.95;;;2.50;;
71665;SDS011;59503;53.486;10.196;2023-09-30T01:31:36;15.18;;;2.58;;
71665;SDS011;59503;53.486;10.196;2023-09-30T01:34:03;14.20;;;2.45;;
71665;SDS011;59503;53.486;10.196;2023-09-30T01:36:28;18.13;;;3.13;;
71665;SDS011;59503;53.486;10.196;2023-09-30T01:38:54;21.77;;;2.80;;
71665;SDS011;59503;53.486;10.196;2023-09-30T01:41:19;17.02;;;3.35;;
71665;SDS011;59503;53.486;10.196;2023-09-30T01:43:45;12.70;;;2.30;;
71665;SDS011;59503;53.486;10.196;2023-09-30T01:46:12;19.50;;;2.83;;
71665;SDS011;59503;53.486;10.196;2023-09-30T01:48:37;13.33;;;2.70;;
71665;SDS011;59503;53.486;10.196;2023-09-30T01:51:03;16.80;;;2.40;;
71665;SDS011;59503;53.486;10.196;2023-09-30T01:53:29;16.40;;;2.50;;
71665;SDS011;59503;53.486;10.196;2023-09-30T01:55:54;14.63;;;3.07;;
71665;SDS011;59503;53.486;10.196;2023-09-30T01:58:20;14.87;;;3.43;;
71665;SDS011;59503;53.486;10.196;2023-09-30T02:00:46;12.93;;;2.73;;
71665;SDS011;59503;53.486;10.196;2023-09-30T02:03:11;15.93;;;2.63;;
71665;SDS011;59503;53.486;10.196;2023-09-30T02:05:38;15.48;;;3.13;;
71665;SDS011;59503;53.486;10.196;2023-09-30T02:08:04;14.27;;;2.70;;
71665;SDS011;59503;53.486;10.196;2023-09-30T02:10:31;12.98;;;2.85;;
71665;SDS011;59503;53.486;10.196;2023-09-30T02:13:00;10.63;;;2.30;;
71665;SDS011;59503;53.486;10.196;2023-09-30T02:15:26;20.02;;;4.35;;
71665;SDS011;59503;53.486;10.196;2023-09-30T02:17:52;16.20;;;2.97;;
71665;SDS011;59503;53.486;10.196;2023-09-30T02:20:18;16.30;;;2.93;;
71665;SDS011;59503;53.486;10.196;2023-09-30T02:22:47;13.43;;;2.50;;
71665;SDS011;59503;53.486;10.196;2023-09-30T02:25:14;11.90;;;2.58;;
71665;SDS011;59503;53.486;10.196;2023-09-30T02:27:40;20.40;;;2.88;;
71665;SDS011;59503;53.486;10.196;2023-09-30T02:30:07;23.20;;;3.30;;
71665;SDS011;59503;53.486;10.196;2023-09-30T02:32:35;15.40;;;3.03;;
71665;SDS011;59503;53.486;10.196;2023-09-30T02:35:05;17.03;;;3.30;;
71665;SDS011;59503;53.486;10.196;2023-09-30T02:37:32;22.10;;;3.47;;
71665;SDS011;59503;53.486;10.196;2023-09-30T02:40:01;12.23;;;3.13;;
71665;SDS011;59503;53.486;10.196;2023-09-30T02:42:34;12.48;;;3.53;;
71665;SDS011;59503;53.486;10.196;2023-09-30T02:45:00;17.30;;;3.10;;
71665;SDS011;59503;53.486;10.196;2023-09-30T02:47:26;15.27;;;3.17;;
71665;SDS011;59503;53.486;10.196;2023-09-30T02:49:52;14.43;;;2.57;;
71665;SDS011;59503;53.486;10.196;2023-09-30T02:52:17;18.30;;;3.67;;
71665;SDS011;59503;53.486;10.196;2023-09-30T02:54:43;20.73;;;2.97;;
71665;SDS011;59503;53.486;10.196;2023-09-30T02:57:08;19.40;;;3.00;;
71665;SDS011;59503;53.486;10.196;2023-09-30T02:59:34;21.67;;;3.97;;
71665;SDS011;59503;53.486;10.196;2023-09-30T03:02:01;19.52;;;4.05;;
71665;SDS011;59503;53.486;10.196;2023-09-30T03:04:28;17.02;;;3.28;;
71665;SDS011;59503;53.486;10.196;2023-09-30T03:06:54;17.97;;;3.53;;
71665;SDS011;59503;53.486;10.196;2023-09-30T03:09:21;12.98;;;3.42;;
71665;SDS011;59503;53.486;10.196;2023-09-30T03:11:47;15.55;;;3.92;;
71665;SDS011;59503;53.486;10.196;2023-09-30T03:14:13;17.92;;;3.63;;
71665;SDS011;59503;53.486;10.196;2023-09-30T03:16:39;23.23;;;4.13;;
71665;SDS011;59503;53.486;10.196;2023-09-30T03:19:06;19.23;;;4.43;;
71665;SDS011;59503;53.486;10.196;2023-09-30T03:21:34;18.58;;;3.65;;
71665;SDS011;59503;53.486;10.196;2023-09-30T03:24:01;21.13;;;4.63;;
71665;SDS011;59503;53.486;10.196;2023-09-30T03:26:29;24.13;;;4.33;;
71665;SDS011;59503;53.486;10.196;2023-09-30T03:28:55;21.50;;;4.57;;
71665;SDS011;59503;53.486;10.196;2023-09-30T03:31:21;27.48;;;5.80;;
71665;SDS011;59503;53.486;10.196;2023-09-30T03:33:47;25.67;;;5.63;;
71665;SDS011;59503;53.486;10.196;2023-09-30T03:36:21;15.90;;;4.50;;
71665;SDS011;59503;53.486;10.196;2023-09-30T03:38:50;14.05;;;3.40;;
71665;SDS011;59503;53.486;10.196;2023-09-30T03:41:20;19.65;;;4.38;;
71665;SDS011;59503;53.486;10.196;2023-09-30T03:43:46;20.80;;;4.80;;
71665;SDS011;59503;53.486;10.196;2023-09-30T03:46:14;28.98;;;5.15;;
71665;SDS011;59503;53.486;10.196;2023-09-30T03:48:40;24.00;;;4.78;;
71665;SDS011;59503;53.486;10.196;2023-09-30T03:51:14;17.08;;;4.43;;
71665;SDS011;59503;53.486;10.196;2023-09-30T03:53:49;27.13;;;5.00;;
71665;SDS011;59503;53.486;10.196;2023-09-30T03:56:14;26.97;;;5.50;;
71665;SDS011;59503;53.486;10.196;2023-09-30T03:58:40;22.33;;;4.78;;
71665;SDS011;59503;53.486;10.196;2023-09-30T04:01:08;22.45;;;4.88;;
71665;SDS011;59503;53.486;10.196;2023-09-30T04:03:36;16.45;;;5.55;;
71665;SDS011;59503;53.486;10.196;2023-09-30T04:06:04;28.48;;;5.60;;
71665;SDS011;59503;53.486;10.196;2023-09-30T04:08:30;20.80;;;4.93;;
71665;SDS011;59503;53.486;10.196;2023-09-30T04:11:01;16.33;;;4.57;;
71665;SDS011;59503;53.486;10.196;2023-09-30T04:13:30;31.02;;;4.95;;
71665;SDS011;59503;53.486;10.196;2023-09-30T04:15:56;26.88;;;5.57;;
71665;SDS011;59503;53.486;10.196;2023-09-30T04:18:24;23.47;;;5.33;;
71665;SDS011;59503;53.486;10.196;2023-09-30T04:20:54;16.70;;;5.10;;
71665;SDS011;59503;53.486;10.196;2023-09-30T04:23:20;20.45;;;5.18;;
71665;SDS011;59503;53.486;10.196;2023-09-30T04:25:46;22.02;;;4.63;;
71665;SDS011;59503;53.486;10.196;2023-09-30T04:28:12;24.53;;;6.07;;
71665;SDS011;59503;53.486;10.196;2023-09-30T04:30:39;22.00;;;4.63;;
71665;SDS011;59503;53.486;10.196;2023-09-30T04:33:05;20.75;;;4.53;;
71665;SDS011;59503;53.486;10.196;2023-09-30T04:35:32;23.00;;;4.50;;
71665;SDS011;59503;53.486;10.196;2023-09-30T04:37:57;18.67;;;4.55;;
71665;SDS011;59503;53.486;10.196;2023-09-30T04:40:30;19.37;;;4.27;;
71665;SDS011;59503;53.486;10.196;2023-09-30T04:42:57;18.15;;;4.32;;
71665;SDS011;59503;53.486;10.196;2023-09-30T04:45:26;18.70;;;3.92;;
71665;SDS011;59503;53.486;10.196;2023-09-30T04:47:55;19.85;;;4.55;;
71665;SDS011;59503;53.486;10.196;2023-09-30T04:50:23;27.05;;;5.95;;
71665;SDS011;59503;53.486;10.196;2023-09-30T04:52:49;21.13;;;4.90;;
71665;SDS011;59503;53.486;10.196;2023-09-30T04:55:16;15.30;;;4.68;;
71665;SDS011;59503;53.486;10.196;2023-09-30T04:57:46;22.95;;;4.43;;
71665;SDS011;59503;53.486;10.196;2023-09-30T05:00:15;14.00;;;4.35;;
71665;SDS011;59503;53.486;10.196;2023-09-30T05:02:47;21.55;;;4.70;;
71665;SDS011;59503;53.486;10.196;2023-09-30T05:05:13;16.47;;;4.40;;
71665;SDS011;59503;53.486;10.196;2023-09-30T05:07:40;18.65;;;4.45;;
71665;SDS011;59503;53.486;10.196;2023-09-30T05:10:06;19.50;;;3.97;;
71665;SDS011;59503;53.486;10.196;2023-09-30T05:12:36;14.65;;;4.32;;
71665;SDS011;59503;53.486;10.196;2023-09-30T05:15:02;8.67;;;3.00;;
71665;SDS011;59503;53.486;10.196;2023-09-30T05:17:28;14.63;;;3.70;;
71665;SDS011;59503;53.486;10.196;2023-09-30T05:19:56;13.00;;;3.97;;
71665;SDS011;59503;53.486;10.196;2023-09-30T05:22:22;13.32;;;3.65;;
71665;SDS011;59503;53.486;10.196;2023-09-30T05:24:50;16.85;;;3.95;;
71665;SDS011;59503;53.486;10.196;2023-09-30T05:27:17;16.43;;;4.47;;
71665;SDS011;59503;53.486;10.196;2023-09-30T05:29:43;10.75;;;3.20;;
71665;SDS011;59503;53.486;10.196;2023-09-30T05:32:08;11.97;;;2.80;;
71665;SDS011;59503;53.486;10.196;2023-09-30T05:34:34;10.05;;;3.65;;
71665;SDS011;59503;53.486;10.196;2023-09-30T05:36:59;15.53;;;3.20;;
71665;SDS011;59503;53.486;10.196;2023-09-30T05:39:25;14.73;;;3.93;;
71665;SDS011;59503;53.486;10.196;2023-09-30T05:41:50;11.43;;;3.45;;
71665;SDS011;59503;53.486;10.196;2023-09-30T05:44:16;13.03;;;3.80;;
71665;SDS011;59503;53.486;10.196;2023-09-30T05:46:41;12.23;;;3.92;;
71665;SDS011;59503;53.486;10.196;2023-09-30T05:49:08;17.53;;;4.20;;
71665;SDS011;59503;53.486;10.196;2023-09-30T05:51:39;13.38;;;3.85;;
71665;SDS011;59503;53.486;10.196;2023-09-30T05:54:07;10.55;;;2.95;;
71665;SDS011;59503;53.486;10.196;2023-09-30T05:56:37;16.50;;;3.83;;
71665;SDS011;59503;53.486;10.196;2023-09-30T05:59:03;16.77;;;4.03;;
71665;SDS011;59503;53.486;10.196;2023-09-30T06:01:32;15.47;;;3.50;;
71665;SDS011;59503;53.486;10.196;2023-09-30T06:03:58;28.77;;;4.72;;
71665;SDS011;59503;53.486;10.196;2023-09-30T06:06:25;22.52;;;4.35;;
71665;SDS011;59503;53.486;10.196;2023-09-30T06:08:51;18.65;;;5.68;;
71665;SDS011;59503;53.486;10.196;2023-09-30T06:11:19;12.70;;;3.93;;
71665;SDS011;59503;53.486;10.196;2023-09-30T06:13:55;20.67;;;4.63;;
71665;SDS011;59503;53.486;10.196;2023-09-30T06:16:24;16.95;;;4.00;;
71665;SDS011;59503;53.486;10.196;2023-09-30T06:18:51;17.87;;;3.70;;
71665;SDS011;59503;53.486;10.196;2023-09-30T06:21:17;18.63;;;3.88;;
71665;SDS011;59503;53.486;10.196;2023-09-30T06:23:54;20.30;;;4.53;;
71665;SDS011;59503;53.486;10.196;2023-09-30T06:26:20;22.40;;;5.53;;
71665;SDS011;59503;53.486;10.196;2023-09-30T06:28:46;24.73;;;5.23;;
71665;SDS011;59503;53.486;10.196;2023-09-30T06:31:12;16.95;;;4.40;;
71665;SDS011;59503;53.486;10.196;2023-09-30T06:33:38;15.33;;;4.50;;
71665;SDS011;59503;53.486;10.196;2023-09-30T06:36:08;17.50;;;4.65;;
71665;SDS011;59503;53.486;10.196;2023-09-30T06:38:34;28.02;;;5.07;;
71665;SDS011;59503;53.486;10.196;2023-09-30T06:40:59;27.40;;;5.80;;
71665;SDS011;59503;53.486;10.196;2023-09-30T06:43:26;26.33;;;4.82;;
71665;SDS011;59503;53.486;10.196;2023-09-30T06:45:53;23.85;;;5.80;;
71665;SDS011;59503;53.486;10.196;2023-09-30T06:48:19;24.50;;;4.35;;
71665;SDS011;59503;53.486;10.196;2023-09-30T06:50:45;22.83;;;5.00;;
71665;SDS011;59503;53.486;10.196;2023-09-30T06:53:13;21.63;;;5.18;;
71665;SDS011;59503;53.486;10.196;2023-09-30T06:55:39;20.00;;;4.50;;
71665;SDS011;59503;53.486;10.196;2023-09-30T06:58:05;18.83;;;4.87;;
71665;SDS011;59503;53.486;10.196;2023-09-30T07:00:33;20.13;;;4.68;;
71665;SDS011;59503;53.486;10.196;2023-09-30T07:03:00;16.58;;;4.00;;
71665;SDS011;59503;53.486;10.196;2023-09-30T07:05:26;15.47;;;3.97;;
71665;SDS011;59503;53.486;10.196;2023-09-30T07:07:53;17.00;;;3.85;;
71665;SDS011;59503;53.486;10.196;2023-09-30T07:10:19;11.10;;;3.40;;
71665;SDS011;59503;53.486;10.196;2023-09-30T07:12:44;12.20;;;2.90;;
71665;SDS011;59503;53.486;10.196;2023-09-30T07:15:10;10.43;;;3.03;;
71665;SDS011;59503;53.486;10.196;2023-09-30T07:17:36;15.18;;;3.40;;
71665;SDS011;59503;53.486;10.196;2023-09-30T07:20:02;12.50;;;3.20;;
71665;SDS011;59503;53.486;10.196;2023-09-30T07:22:30;14.88;;;3.00;;
71665;SDS011;59503;53.486;10.196;2023-09-30T07:24:56;11.83;;;2.87;;
71665;SDS011;59503;53.486;10.196;2023-09-30T07:27:23;16.00;;;3.03;;
71665;SDS011;59503;53.486;10.196;2023-09-30T07:29:49;14.52;;;2.65;;
71665;SDS011;59503;53.486;10.196;2023-09-30T07:32:14;13.77;;;3.20;;
71665;SDS011;59503;53.486;10.196;2023-09-30T07:34:40;5.63;;;2.97;;
71665;SDS011;59503;53.486;10.196;2023-09-30T07:37:05;9.07;;;2.22;;
71665;SDS011;59503;53.486;10.196;2023-09-30T07:39:31;10.63;;;2.67;;
71665;SDS011;59503;53.486;10.196;2023-09-30T07:41:56;12.40;;;2.93;;
71665;SDS011;59503;53.486;10.196;2023-09-30T07:44:22;13.98;;;2.67;;
71665;SDS011;59503;53.486;10.196;2023-09-30T07:46:48;13.40;;;2.97;;
71665;SDS011;59503;53.486;10.196;2023-09-30T07:49:13;9.57;;;2.45;;
71665;SDS011;59503;53.486;10.196;2023-09-30T07:51:39;11.13;;;2.40;;
71665;SDS011;59503;53.486;10.196;2023-09-30T07:54:05;12.10;;;2.70;;
71665;SDS011;59503;53.486;10.196;2023-09-30T07:56:31;10.45;;;2.55;;
71665;SDS011;59503;53.486;10.196;2023-09-30T07:58:56;7.00;;;2.57;;
71665;SDS011;59503;53.486;10.196;2023-09-30T08:01:22;10.00;;;2.03;;
71665;SDS011;59503;53.486;10.196;2023-09-30T08:03:47;8.73;;;2.55;;
71665;SDS011;59503;53.486;10.196;2023-09-30T08:06:13;9.20;;;2.07;;
71665;SDS011;59503;53.486;10.196;2023-09-30T08:08:38;11.60;;;2.40;;
71665;SDS011;59503;53.486;10.196;2023-09-30T08:11:05;12.07;;;2.50;;
71665;SDS011;59503;53.486;10.196;2023-09-30T08:13:31;12.65;;;2.58;;
71665;SDS011;59503;53.486;10.196;2023-09-30T08:15:58;14.32;;;2.58;;
71665;SDS011;59503;53.486;10.196;2023-09-30T08:18:24;8.10;;;2.25;;
71665;SDS011;59503;53.486;10.196;2023-09-30T08:20:49;7.37;;;2.00;;
71665;SDS011;59503;53.486;10.196;2023-09-30T08:23:15;9.47;;;2.13;;
71665;SDS011;59503;53.486;10.196;2023-09-30T08:25:40;9.43;;;2.25;;
71665;SDS011;59503;53.486;10.196;2023-09-30T08:28:06;9.67;;;2.27;;
71665;SDS011;59503;53.486;10.196;2023-09-30T08:30:34;9.25;;;1.55;;
71665;SDS011;59503;53.486;10.196;2023-09-30T08:33:01;9.95;;;2.10;;
71665;SDS011;59503;53.486;10.196;2023-09-30T08:35:28;11.60;;;2.25;;
71665;SDS011;59503;53.486;10.196;2023-09-30T08:37:54;11.80;;;2.00;;
71665;SDS011;59503;53.486;10.196;2023-09-30T08:40:22;11.20;;;3.17;;
71665;SDS011;59503;53.486;10.196;2023-09-30T08:42:49;7.43;;;2.03;;
71665;SDS011;59503;53.486;10.196;2023-09-30T08:45:17;17.05;;;2.45;;
71665;SDS011;59503;53.486;10.196;2023-09-30T08:47:44;9.05;;;2.05;;
71665;SDS011;59503;53.486;10.196;2023-09-30T08:50:11;10.05;;;2.20;;
71665;SDS011;59503;53.486;10.196;2023-09-30T08:52:40;10.75;;;1.75;;
71665;SDS011;59503;53.486;10.196;2023-09-30T08:55:07;10.70;;;2.53;;
71665;SDS011;59503;53.486;10.196;2023-09-30T08:57:35;8.30;;;1.80;;
71665;SDS011;59503;53.486;10.196;2023-09-30T09:00:04;13.32;;;1.73;;
71665;SDS011;59503;53.486;10.196;2023-09-30T09:02:34;13.40;;;2.33;;
71665;SDS011;59503;53.486;10.196;2023-09-30T09:05:01;9.40;;;1.85;;
71665;SDS011;59503;53.486;10.196;2023-09-30T09:07:27;13.20;;;2.43;;
71665;SDS011;59503;53.486;10.196;2023-09-30T09:10:02;8.32;;;2.10;;
71665;SDS011;59503;53.486;10.196;2023-09-30T09:12:39;13.85;;;1.42;;
71665;SDS011;59503;53.486;10.196;2023-09-30T09:15:05;7.37;;;1.40;;
71665;SDS011;59503;53.486;10.196;2023-09-30T09:17:41;9.77;;;1.88;;
71665;SDS011;59503;53.486;10.196;2023-09-30T09:20:09;12.85;;;2.72;;
71665;SDS011;59503;53.486;10.196;2023-09-30T09:22:43;13.13;;;1.52;;
71665;SDS011;59503;53.486;10.196;2023-09-30T09:25:10;9.32;;;2.22;;
71665;SDS011;59503;53.486;10.196;2023-09-30T09:27:36;13.87;;;1.50;;
71665;SDS011;59503;53.486;10.196;2023-09-30T09:30:18;5.75;;;1.23;;
71665;SDS011;59503;53.486;10.196;2023-09-30T09:35:28;6.47;;;1.30;;
71665;SDS011;59503;53.486;10.196;2023-09-30T09:37:56;14.60;;;1.75;;
71665;SDS011;59503;53.486;10.196;2023-09-30T09:40:35;8.67;;;1.80;;
71665;SDS011;59503;53.486;10.196;2023-09-30T09:43:05;14.25;;;1.42;;
71665;SDS011;59503;53.486;10.196;2023-09-30T09:45:33;8.63;;;1.58;;
71665;SDS011;59503;53.486;10.196;2023-09-30T09:48:00;7.43;;;1.30;;
71665;SDS011;59503;53.486;10.196;2023-09-30T09:50:26;10.10;;;1.57;;
71665;SDS011;59503;53.486;10.196;2023-09-30T09:52:52;6.90;;;1.48;;
71665;SDS011;59503;53.486;10.196;2023-09-30T09:55:24;9.45;;;1.50;;
71665;SDS011;59503;53.486;10.196;2023-09-30T09:57:50;8.38;;;1.52;;
71665;SDS011;59503;53.486;10.196;2023-09-30T10:00:17;7.60;;;1.43;;
71665;SDS011;59503;53.486;10.196;2023-09-30T10:02:47;6.88;;;1.25;;
71665;SDS011;59503;53.486;10.196;2023-09-30T10:05:13;13.55;;;2.45;;
71665;SDS011;59503;53.486;10.196;2023-09-30T10:10:25;9.07;;;1.23;;
71665;SDS011;59503;53.486;10.196;2023-09-30T10:12:51;9.00;;;1.13;;
71665;SDS011;59503;53.486;10.196;2023-09-30T10:20:27;7.20;;;1.02;;
71665;SDS011;59503;53.486;10.196;2023-09-30T10:23:39;7.40;;;1.37;;
71665;SDS011;59503;53.486;10.196;2023-09-30T10:25:44;9.00;;;1.38;;
71665;SDS011;59503;53.486;10.196;2023-09-30T10:34:15;10.10;;;1.10;;
71665;SDS011;59503;53.486;10.196;2023-09-30T10:36:27;8.43;;;1.20;;
71665;SDS011;59503;53.486;10.196;2023-09-30T10:39:00;5.35;;;0.88;;
71665;SDS011;59503;53.486;10.196;2023-09-30T10:46:54;9.40;;;1.55;;
71665;SDS011;59503;53.486;10.196;2023-09-30T10:51:50;8.90;;;1.05;;
71665;SDS011;59503;53.486;10.196;2023-09-30T10:54:21;7.63;;;1.50;;
71665;SDS011;59503;53.486;10.196;2023-09-30T10:56:48;12.48;;;1.25;;
71665;SDS011;59503;53.486;10.196;2023-09-30T10:59:21;10.37;;;1.27;;
71665;SDS011;59503;53.486;10.196;2023-09-30T11:01:47;11.63;;;1.60;;
71665;SDS011;59503;53.486;10.196;2023-09-30T11:04:13;9.15;;;1.17;;
71665;SDS011;59503;53.486;10.196;2023-09-30T11:06:41;4.82;;;1.00;;
71665;SDS011;59503;53.486;10.196;2023-09-30T11:09:07;7.35;;;1.42;;
71665;SDS011;59503;53.486;10.196;2023-09-30T11:11:42;5.90;;;1.03;;
71665;SDS011;59503;53.486;10.196;2023-09-30T11:14:19;8.50;;;1.17;;
71665;SDS011;59503;53.486;10.196;2023-09-30T11:16:45;9.85;;;1.48;;
71665;SDS011;59503;53.486;10.196;2023-09-30T11:19:11;5.93;;;1.23;;
71665;SDS011;59503;53.486;10.196;2023-09-30T11:21:38;7.78;;;1.23;;
71665;SDS011;59503;53.486;10.196;2023-09-30T11:24:05;5.63;;;1.00;;
71665;SDS011;59503;53.486;10.196;2023-09-30T11:26:32;8.70;;;0.88;;
71665;SDS011;59503;53.486;10.196;2023-09-30T11:29:08;12.02;;;1.95;;
71665;SDS011;59503;53.486;10.196;2023-09-30T11:31:40;6.15;;;1.77;;
71665;SDS011;59503;53.486;10.196;2023-09-30T11:34:06;7.97;;;0.90;;
71665;SDS011;59503;53.486;10.196;2023-09-30T11:36:36;9.50;;;1.00;;
71665;SDS011;59503;53.486;10.196;2023-09-30T11:39:08;9.52;;;1.30;;
71665;SDS011;59503;53.486;10.196;2023-09-30T11:41:38;8.35;;;1.05;;
71665;SDS011;59503;53.486;10.196;2023-09-30T11:44:07;7.60;;;1.30;;
71665;SDS011;59503;53.486;10.196;2023-09-30T11:46:56;9.55;;;1.40;;
71665;SDS011;59503;53.486;10.196;2023-09-30T11:52:00;12.38;;;1.58;;
71665;SDS011;59503;53.486;10.196;2023-09-30T11:54:29;7.00;;;1.23;;
71665;SDS011;59503;53.486;10.196;2023-09-30T11:56:59;13.40;;;1.52;;
71665;SDS011;59503;53.486;10.196;2023-09-30T11:59:25;6.15;;;0.70;;
71665;SDS011;59503;53.486;10.196;2023-09-30T12:01:51;8.27;;;0.97;;
71665;SDS011;59503;53.486;10.196;2023-09-30T12:04:17;5.75;;;1.08;;
71665;SDS011;59503;53.486;10.196;2023-09-30T12:06:45;9.07;;;0.90;;
71665;SDS011;59503;53.486;10.196;2023-09-30T12:09:13;8.95;;;1.30;;
71665;SDS011;59503;53.486;10.196;2023-09-30T12:11:47;4.78;;;1.10;;
71665;SDS011;59503;53.486;10.196;2023-09-30T12:14:16;8.13;;;1.10;;
71665;SDS011;59503;53.486;10.196;2023-09-30T12:16:41;11.43;;;1.77;;
71665;SDS011;59503;53.486;10.196;2023-09-30T12:19:10;4.35;;;0.85;;
71665;SDS011;59503;53.486;10.196;2023-09-30T12:21:35;5.60;;;0.93;;
71665;SDS011;59503;53.486;10.196;2023-09-30T12:24:01;4.90;;;0.93;;
71665;SDS011;59503;53.486;10.196;2023-09-30T12:26:29;6.65;;;0.90;;
71665;SDS011;59503;53.486;10.196;2023-09-30T12:28:55;7.78;;;0.98;;
71665;SDS011;59503;53.486;10.196;2023-09-30T12:31:21;8.07;;;0.83;;
71665;SDS011;59503;53.486;10.196;2023-09-30T12:33:48;5.47;;;0.90;;
71665;SDS011;59503;53.486;10.196;2023-09-30T12:36:16;5.93;;;1.17;;
71665;SDS011;59503;53.486;10.196;2023-09-30T12:38:44;6.90;;;1.13;;
71665;SDS011;59503;53.486;10.196;2023-09-30T12:41:10;4.83;;;0.90;;
71665;SDS011;59503;53.486;10.196;2023-09-30T12:43:36;4.83;;;1.00;;
71665;SDS011;59503;53.486;10.196;2023-09-30T12:46:02;7.68;;;1.08;;
71665;SDS011;59503;53.486;10.196;2023-09-30T12:48:29;15.85;;;1.85;;
71665;SDS011;59503;53.486;10.196;2023-09-30T12:50:55;4.60;;;1.37;;
71665;SDS011;59503;53.486;10.196;2023-09-30T12:53:20;3.63;;;0.57;;
71665;SDS011;59503;53.486;10.196;2023-09-30T12:55:46;7.70;;;1.57;;
71665;SDS011;59503;53.486;10.196;2023-09-30T12:58:11;6.87;;;1.20;;
71665;SDS011;59503;53.486;10.196;2023-09-30T13:00:37;6.88;;;0.90;;
71665;SDS011;59503;53.486;10.196;2023-09-30T13:03:02;5.27;;;1.00;;
71665;SDS011;59503;53.486;10.196;2023-09-30T13:05:28;7.78;;;1.17;;
71665;SDS011;59503;53.486;10.196;2023-09-30T13:07:57;5.93;;;0.85;;
71665;SDS011;59503;53.486;10.196;2023-09-30T13:10:23;7.70;;;0.80;;
71665;SDS011;59503;53.486;10.196;2023-09-30T13:12:49;4.20;;;1.17;;
71665;SDS011;59503;53.486;10.196;2023-09-30T13:15:15;6.53;;;0.70;;
71665;SDS011;59503;53.486;10.196;2023-09-30T13:17:41;9.07;;;1.02;;
71665;SDS011;59503;53.486;10.196;2023-09-30T13:20:07;6.70;;;1.02;;
71665;SDS011;59503;53.486;10.196;2023-09-30T13:22:34;8.73;;;1.02;;
71665;SDS011;59503;53.486;10.196;2023-09-30T13:25:03;6.10;;;0.77;;
71665;SDS011;59503;53.486;10.196;2023-09-30T13:27:30;5.00;;;0.90;;
71665;SDS011;59503;53.486;10.196;2023-09-30T13:29:56;6.35;;;1.27;;
71665;SDS011;59503;53.486;10.196;2023-09-30T13:32:23;4.95;;;0.93;;
71665;SDS011;59503;53.486;10.196;2023-09-30T13:34:50;10.77;;;1.38;;
71665;SDS011;59503;53.486;10.196;2023-09-30T13:37:17;9.30;;;1.23;;
71665;SDS011;59503;53.486;10.196;2023-09-30T13:39:42;7.47;;;0.90;;
71665;SDS011;59503;53.486;10.196;2023-09-30T13:42:08;3.30;;;0.90;;
71665;SDS011;59503;53.486;10.196;2023-09-30T13:44:33;3.67;;;0.80;;
71665;SDS011;59503;53.486;10.196;2023-09-30T13:46:59;4.83;;;0.90;;
71665;SDS011;59503;53.486;10.196;2023-09-30T13:49:25;5.07;;;0.90;;
71665;SDS011;59503;53.486;10.196;2023-09-30T13:51:50;6.10;;;1.02;;
71665;SDS011;59503;53.486;10.196;2023-09-30T13:54:16;4.53;;;1.00;;
71665;SDS011;59503;53.486;10.196;2023-09-30T13:56:41;5.95;;;1.27;;
71665;SDS011;59503;53.486;10.196;2023-09-30T13:59:07;7.30;;;1.00;;
71665;SDS011;59503;53.486;10.196;2023-09-30T14:01:33;4.63;;;0.85;;
71665;SDS011;59503;53.486;10.196;2023-09-30T14:03:58;4.77;;;0.80;;
71665;SDS011;59503;53.486;10.196;2023-09-30T14:06:24;8.67;;;1.00;;
71665;SDS011;59503;53.486;10.196;2023-09-30T14:08:50;5.47;;;1.10;;
71665;SDS011;59503;53.486;10.196;2023-09-30T14:11:16;3.67;;;0.70;;
71665;SDS011;59503;53.486;10.196;2023-09-30T14:13:41;6.28;;;1.20;;
71665;SDS011;59503;53.486;10.196;2023-09-30T14:16:08;5.32;;;0.90;;
71665;SDS011;59503;53.486;10.196;2023-09-30T14:18:33;5.65;;;1.10;;
71665;SDS011;59503;53.486;10.196;2023-09-30T14:21:01;5.90;;;1.20;;
71665;SDS011;59503;53.486;10.196;2023-09-30T14:23:27;6.50;;;1.10;;
71665;SDS011;59503;53.486;10.196;2023-09-30T14:25:54;4.25;;;1.15;;
71665;SDS011;59503;53.486;10.196;2023-09-30T14:28:24;4.07;;;0.70;;
71665;SDS011;59503;53.486;10.196;2023-09-30T14:30:50;6.33;;;1.23;;
71665;SDS011;59503;53.486;10.196;2023-09-30T14:33:15;5.20;;;0.93;;
71665;SDS011;59503;53.486;10.196;2023-09-30T14:35:41;5.72;;;0.77;;
71665;SDS011;59503;53.486;10.196;2023-09-30T14:38:09;7.07;;;0.95;;
71665;SDS011;59503;53.486;10.196;2023-09-30T14:40:39;5.10;;;1.10;;
71665;SDS011;59503;53.486;10.196;2023-09-30T14:43:05;6.00;;;1.05;;
71665;SDS011;59503;53.486;10.196;2023-09-30T14:45:38;9.60;;;1.20;;
71665;SDS011;59503;53.486;10.196;2023-09-30T14:48:04;6.25;;;0.90;;
71665;SDS011;59503;53.486;10.196;2023-09-30T14:50:31;6.07;;;1.20;;
71665;SDS011;59503;53.486;10.196;2023-09-30T14:52:56;6.77;;;1.17;;